createdAt,value
2019-03-05T00:00:05.505Z,2.10
2019-03-05T00:01:05.499Z,2.20
2019-03-05T00:02:05.478Z,2.00
2019-03-05T00:03:05.487Z,1.80
2019-03-05T00:04:05.459Z,2.20
2019-03-05T00:05:05.446Z,2.20
2019-03-05T00:06:05.461Z,1.90
2019-03-05T00:07:05.419Z,2.20
2019-03-05T00:08:05.406Z,2.10
2019-03-05T00:09:05.426Z,2.10
2019-03-05T00:10:05.387Z,2.20
2019-03-05T00:11:05.374Z,2.00
2019-03-05T00:12:05.377Z,2.10
2019-03-05T00:13:05.354Z,2.10
2019-03-05T00:14:05.349Z,2.10
2019-03-05T00:15:05.383Z,1.80
2019-03-05T00:16:05.324Z,1.60
2019-03-05T00:17:05.328Z,1.90
2019-03-05T00:18:05.300Z,1.90
2019-03-05T00:19:05.299Z,1.90
2019-03-05T00:20:05.295Z,1.90
2019-03-05T00:21:05.279Z,1.80
2019-03-05T00:22:05.247Z,1.80
2019-03-05T00:23:05.255Z,1.80
2019-03-05T00:24:05.232Z,1.90
2019-03-05T00:25:05.224Z,2.20
2019-03-05T00:26:05.289Z,1.80
2019-03-05T00:27:05.191Z,2.00
2019-03-05T00:28:05.187Z,1.60
2019-03-05T00:29:05.193Z,2.10
2019-03-05T00:30:05.170Z,1.80
2019-03-05T00:31:05.148Z,2.10
2019-03-05T00:32:05.175Z,1.90
2019-03-05T00:33:05.124Z,2.00
2019-03-05T00:34:05.138Z,1.90
2019-03-05T00:35:05.116Z,1.70
2019-03-05T00:36:05.093Z,2.30
2019-03-05T00:37:05.083Z,2.00
2019-03-05T00:38:05.097Z,1.80
2019-03-05T00:39:05.094Z,1.90
2019-03-05T00:40:05.050Z,1.80
2019-03-05T00:41:05.044Z,1.90
2019-03-05T00:42:05.029Z,2.00
2019-03-05T00:43:05.014Z,1.90
2019-03-05T00:44:05.023Z,1.90
2019-03-05T00:45:05.014Z,1.90
2019-03-05T00:46:04.988Z,1.90
2019-03-05T00:47:04.976Z,1.70
2019-03-05T00:48:04.961Z,1.70
2019-03-05T00:49:04.948Z,1.90
2019-03-05T00:50:04.957Z,1.50
2019-03-05T00:51:04.938Z,1.90
2019-03-05T00:52:04.924Z,1.80
2019-03-05T00:53:04.905Z,1.60
2019-03-05T00:54:04.895Z,1.80
2019-03-05T00:55:04.881Z,1.80
2019-03-05T00:56:04.903Z,1.60
2019-03-05T00:57:04.874Z,1.90
2019-03-05T00:58:04.847Z,1.80
2019-03-05T00:59:04.832Z,1.60
2019-03-05T01:00:04.825Z,2.00
2019-03-05T01:01:04.813Z,1.80
2019-03-05T01:02:04.833Z,2.10
2019-03-05T01:03:04.789Z,1.80
2019-03-05T01:04:04.782Z,1.60
2019-03-05T01:05:04.763Z,1.90
2019-03-05T01:06:04.757Z,2.00
2019-03-05T01:07:04.822Z,1.80
2019-03-05T01:08:04.737Z,1.80
2019-03-05T01:09:04.757Z,2.10
2019-03-05T01:10:04.701Z,1.90
2019-03-05T01:11:04.703Z,2.00
2019-03-05T01:12:04.710Z,2.10
2019-03-05T01:13:04.680Z,1.70
2019-03-05T01:14:04.676Z,2.00
2019-03-05T01:15:04.689Z,1.90
2019-03-05T01:16:04.647Z,1.80
2019-03-05T01:17:04.636Z,2.00
2019-03-05T01:18:04.657Z,1.90
2019-03-05T01:19:04.618Z,1.90
2019-03-05T01:20:04.612Z,1.90
2019-03-05T01:21:04.632Z,1.90
2019-03-05T01:22:04.578Z,1.70
2019-03-05T01:23:04.565Z,1.90
2019-03-05T01:24:04.728Z,2.20
2019-03-05T01:25:04.543Z,1.70
2019-03-05T01:26:04.525Z,2.00
2019-03-05T01:27:04.540Z,2.20
2019-03-05T01:28:04.510Z,1.80
2019-03-05T01:29:04.502Z,2.10
2019-03-05T01:30:04.506Z,2.00
2019-03-05T01:31:04.473Z,2.10
2019-03-05T01:32:04.461Z,2.10
2019-03-05T01:33:04.474Z,2.10
2019-03-05T01:34:04.439Z,2.10
2019-03-05T01:35:04.446Z,2.10
2019-03-05T01:36:04.420Z,2.50
2019-03-05T01:37:04.403Z,2.20
2019-03-05T01:38:04.397Z,2.30
2019-03-05T01:39:04.401Z,2.30
2019-03-05T01:40:04.398Z,2.40
2019-03-05T01:41:04.367Z,2.10
2019-03-05T01:42:04.351Z,2.30
2019-03-05T01:43:04.342Z,2.30
2019-03-05T01:44:04.328Z,2.30
2019-03-05T01:45:04.373Z,2.20
2019-03-05T01:46:04.305Z,2.50
2019-03-05T01:47:04.294Z,2.20
2019-03-05T01:48:04.308Z,2.40
2019-03-05T01:49:04.276Z,2.50
2019-03-05T01:50:04.259Z,2.10
2019-03-05T01:51:04.293Z,2.30
2019-03-05T01:52:04.238Z,2.30
2019-03-05T01:53:04.227Z,2.30
2019-03-05T01:54:04.286Z,2.30
2019-03-05T01:55:04.208Z,2.20
2019-03-05T01:56:04.453Z,2.20
2019-03-05T01:57:04.223Z,2.40
2019-03-05T01:58:04.167Z,2.30
2019-03-05T01:59:04.161Z,2.30
2019-03-05T02:00:04.152Z,2.20
2019-03-05T02:01:04.149Z,2.50
2019-03-05T02:02:04.133Z,2.40
2019-03-05T02:03:04.135Z,2.30
2019-03-05T02:04:04.103Z,2.10
2019-03-05T02:05:04.096Z,2.60
2019-03-05T02:06:04.084Z,2.40
2019-03-05T02:07:04.083Z,2.80
2019-03-05T02:08:04.059Z,2.90
2019-03-05T02:09:04.068Z,2.30
2019-03-05T02:10:04.038Z,2.60
2019-03-05T02:11:04.029Z,2.50
2019-03-05T02:12:04.007Z,2.30
2019-03-05T02:13:04.013Z,2.40
2019-03-05T02:14:03.992Z,2.70
2019-03-05T02:15:04.008Z,2.50
2019-03-05T02:16:04.000Z,2.50
2019-03-05T02:17:03.957Z,2.80
2019-03-05T02:18:03.946Z,2.40
2019-03-05T02:19:03.938Z,2.50
2019-03-05T02:20:03.945Z,2.60
2019-03-05T02:21:03.938Z,2.60
2019-03-05T02:22:03.900Z,2.80
2019-03-05T02:23:03.890Z,2.70
2019-03-05T02:24:03.879Z,2.70
2019-03-05T02:25:03.866Z,2.50
2019-03-05T02:26:03.877Z,2.40
2019-03-05T02:27:03.890Z,2.50
2019-03-05T02:28:03.827Z,2.30
2019-03-05T02:29:03.816Z,2.40
2019-03-05T02:30:03.807Z,2.20
2019-03-05T02:31:03.795Z,2.20
2019-03-05T02:32:03.810Z,2.10
2019-03-05T02:33:03.798Z,2.40
2019-03-05T02:34:03.761Z,1.90
2019-03-05T02:35:03.756Z,2.20
2019-03-05T02:36:03.742Z,2.00
2019-03-05T02:37:03.725Z,2.30
2019-03-05T02:38:05.634Z,2.10
2019-03-05T02:39:03.715Z,2.10
2019-03-05T02:40:03.700Z,2.30
2019-03-05T02:41:03.690Z,1.90
2019-03-05T02:42:03.678Z,1.90
2019-03-05T02:43:03.660Z,1.90
2019-03-05T02:44:03.656Z,1.80
2019-03-05T02:45:03.668Z,1.80
2019-03-05T02:46:03.628Z,1.90
2019-03-05T02:47:03.623Z,1.80
2019-03-05T02:48:03.603Z,2.00
2019-03-05T02:49:03.603Z,1.80
2019-03-05T02:50:03.593Z,2.00
2019-03-05T02:51:03.592Z,1.90
2019-03-05T02:52:03.560Z,1.90
2019-03-05T02:53:03.554Z,1.70
2019-03-05T02:54:03.560Z,1.80
2019-03-05T02:55:03.530Z,1.90
2019-03-05T02:56:03.513Z,1.90
2019-03-05T02:57:03.525Z,1.70
2019-03-05T02:58:03.492Z,1.70
2019-03-05T02:59:03.482Z,1.80
2019-03-05T03:00:03.484Z,1.80
2019-03-05T03:01:03.484Z,2.00
2019-03-05T03:02:03.445Z,1.80
2019-03-05T03:03:03.466Z,1.70
2019-03-05T03:04:03.427Z,1.70
2019-03-05T03:05:03.438Z,1.70
2019-03-05T03:06:03.408Z,2.00
2019-03-05T03:07:03.404Z,1.90
2019-03-05T03:08:03.380Z,1.80
2019-03-05T03:09:03.394Z,1.80
2019-03-05T03:10:03.390Z,1.70
2019-03-05T03:11:03.356Z,1.90
2019-03-05T03:12:03.336Z,1.80
2019-03-05T03:13:03.321Z,1.90
2019-03-05T03:14:03.311Z,2.00
2019-03-05T03:15:03.332Z,1.90
2019-03-05T03:16:03.295Z,1.80
2019-03-05T03:17:03.278Z,1.70
2019-03-05T03:18:03.273Z,2.00
2019-03-05T03:19:03.258Z,1.80
2019-03-05T03:20:03.258Z,2.00
2019-03-05T03:21:03.265Z,1.80
2019-03-05T03:22:03.253Z,1.80
2019-03-05T03:23:03.207Z,1.90
2019-03-05T03:24:03.203Z,2.10
2019-03-05T03:25:03.195Z,2.00
2019-03-05T03:26:03.173Z,1.50
2019-03-05T03:27:03.187Z,1.90
2019-03-05T03:28:03.177Z,1.90
2019-03-05T03:29:03.146Z,1.80
2019-03-05T03:30:03.147Z,2.10
2019-03-05T03:31:03.116Z,1.60
2019-03-05T03:32:03.106Z,1.70
2019-03-05T03:33:03.124Z,1.70
2019-03-05T03:34:03.112Z,1.70
2019-03-05T03:35:03.073Z,1.60
2019-03-05T03:36:03.065Z,1.80
2019-03-05T03:37:03.050Z,1.80
2019-03-05T03:38:03.047Z,1.80
2019-03-05T03:39:03.029Z,1.80
2019-03-05T03:40:06.062Z,1.70
2019-03-05T03:41:03.015Z,1.70
2019-03-05T03:42:02.996Z,1.80
2019-03-05T03:43:03.030Z,1.70
2019-03-05T03:44:02.980Z,1.70
2019-03-05T03:45:02.974Z,1.50
2019-03-05T03:46:02.981Z,1.50
2019-03-05T03:47:02.936Z,1.80
2019-03-05T03:48:02.944Z,1.70
2019-03-05T03:49:02.940Z,1.70
2019-03-05T03:50:02.906Z,1.50
2019-03-05T03:51:02.894Z,1.40
2019-03-05T03:52:02.908Z,1.40
2019-03-05T03:53:02.874Z,1.40
2019-03-05T03:54:02.867Z,1.70
2019-03-05T03:55:02.874Z,1.50
2019-03-05T03:56:02.844Z,1.50
2019-03-05T03:57:02.826Z,1.80
2019-03-05T03:58:02.841Z,1.50
2019-03-05T03:59:02.810Z,1.50
2019-03-05T04:00:02.794Z,1.60
2019-03-05T04:01:02.805Z,1.70
2019-03-05T04:02:02.774Z,1.40
2019-03-05T04:03:02.762Z,1.60
2019-03-05T04:04:02.799Z,1.50
2019-03-05T04:05:02.744Z,1.50
2019-03-05T04:06:02.740Z,1.50
2019-03-05T04:07:02.716Z,1.80
2019-03-05T04:08:14.786Z,1.50
2019-03-05T04:10:14.025Z,1.10
2019-03-05T04:11:14.063Z,1.40
2019-03-05T04:12:13.972Z,1.80
2019-03-05T04:13:14.029Z,1.40
2019-03-05T04:14:13.911Z,1.30
2019-03-05T04:15:13.889Z,1.30
2019-03-05T04:16:14.671Z,1.50
2019-03-05T04:17:13.886Z,1.20
2019-03-05T04:18:13.847Z,1.30
2019-03-05T04:19:13.862Z,1.30
2019-03-05T04:20:13.829Z,1.40
2019-03-05T04:21:13.815Z,1.70
2019-03-05T04:22:13.802Z,1.40
2019-03-05T04:23:13.801Z,1.60
2019-03-05T04:24:13.809Z,1.20
2019-03-05T04:25:13.761Z,1.50
2019-03-05T04:26:13.754Z,1.30
2019-03-05T04:27:13.751Z,1.30
2019-03-05T04:28:13.761Z,1.30
2019-03-05T04:29:13.726Z,1.40
2019-03-05T04:30:13.738Z,1.30
2019-03-05T04:31:13.705Z,1.60
2019-03-05T04:32:13.699Z,1.50
2019-03-05T04:33:13.684Z,1.20
2019-03-05T04:34:13.670Z,1.50
2019-03-05T04:35:13.652Z,1.40
2019-03-05T04:36:13.655Z,1.30
2019-03-05T04:37:13.628Z,1.50
2019-03-05T04:38:13.624Z,1.20
2019-03-05T04:39:13.637Z,1.30
2019-03-05T04:40:13.600Z,1.30
2019-03-05T04:41:13.617Z,1.40
2019-03-05T04:42:13.581Z,1.10
2019-03-05T04:43:13.562Z,1.20
2019-03-05T04:44:13.553Z,1.40
2019-03-05T04:45:13.648Z,1.30
2019-03-05T04:46:13.525Z,1.30
2019-03-05T04:47:13.530Z,1.30
2019-03-05T04:48:13.512Z,1.40
2019-03-05T04:49:13.493Z,1.30
2019-03-05T04:50:13.486Z,1.50
2019-03-05T04:51:13.485Z,1.50
2019-03-05T04:52:13.506Z,1.50
2019-03-05T04:53:13.484Z,1.40
2019-03-05T04:54:13.441Z,1.30
2019-03-05T04:55:13.428Z,1.20
2019-03-05T04:56:13.445Z,1.30
2019-03-05T04:57:13.408Z,1.50
2019-03-05T04:58:13.397Z,1.50
2019-03-05T04:59:13.408Z,1.50
2019-03-05T05:00:13.373Z,1.50
2019-03-05T05:01:13.366Z,1.30
2019-03-05T05:02:13.370Z,1.30
2019-03-05T05:03:13.344Z,1.60
2019-03-05T05:04:13.326Z,1.20
2019-03-05T05:05:13.340Z,1.30
2019-03-05T05:06:13.304Z,1.40
2019-03-05T05:07:13.290Z,1.40
2019-03-05T05:08:13.290Z,1.20
2019-03-05T05:09:13.276Z,1.40
2019-03-05T05:10:13.264Z,1.20
2019-03-05T05:11:13.287Z,1.50
2019-03-05T05:12:13.240Z,1.30
2019-03-05T05:13:13.250Z,1.50
2019-03-05T05:14:13.218Z,1.30
2019-03-05T05:15:13.205Z,1.40
2019-03-05T05:16:13.205Z,1.30
2019-03-05T05:17:13.196Z,1.10
2019-03-05T05:18:13.164Z,1.50
2019-03-05T05:19:13.187Z,1.30
2019-03-05T05:20:13.144Z,1.20
2019-03-05T05:21:13.140Z,1.40
2019-03-05T05:22:13.133Z,1.30
2019-03-05T05:23:13.119Z,1.20
2019-03-05T05:24:13.121Z,1.20
2019-03-05T05:25:13.129Z,1.40
2019-03-05T05:26:13.081Z,1.30
2019-03-05T05:27:13.071Z,1.30
2019-03-05T05:28:13.066Z,1.10
2019-03-05T05:29:13.040Z,1.30
2019-03-05T05:30:13.036Z,1.20
2019-03-05T05:31:13.065Z,1.40
2019-03-05T05:32:13.010Z,1.20
2019-03-05T05:33:13.000Z,1.20
2019-03-05T05:34:13.008Z,1.60
2019-03-05T05:35:12.996Z,1.30
2019-03-05T05:36:12.999Z,1.10
2019-03-05T05:37:12.953Z,1.40
2019-03-05T05:38:12.962Z,1.40
2019-03-05T05:39:12.936Z,1.50
2019-03-05T05:40:12.959Z,1.30
2019-03-05T05:41:12.920Z,1.50
2019-03-05T05:42:12.935Z,1.40
2019-03-05T05:43:12.895Z,1.50
2019-03-05T05:44:12.934Z,1.30
2019-03-05T05:45:12.869Z,1.10
2019-03-05T05:46:12.868Z,1.70
2019-03-05T05:47:12.840Z,1.60
2019-03-05T05:48:12.849Z,1.30
2019-03-05T05:49:12.827Z,1.50
2019-03-05T05:50:12.808Z,1.30
2019-03-05T05:51:12.796Z,1.50
2019-03-05T05:52:12.811Z,1.30
2019-03-05T05:53:12.803Z,1.40
2019-03-05T05:54:12.767Z,1.30
2019-03-05T05:55:12.757Z,1.30
2019-03-05T05:56:12.754Z,1.30
2019-03-05T05:57:12.729Z,1.60
2019-03-05T05:58:12.740Z,1.60
2019-03-05T05:59:12.719Z,2.60
2019-03-05T06:00:12.692Z,2.20
2019-03-05T06:01:12.689Z,1.80
2019-03-05T06:02:12.676Z,1.70
2019-03-05T06:03:12.666Z,1.60
2019-03-05T06:04:12.696Z,1.40
2019-03-05T06:05:12.639Z,1.40
2019-03-05T06:06:12.631Z,1.50
2019-03-05T06:07:12.624Z,1.20
2019-03-05T06:08:12.605Z,1.20
2019-03-05T06:09:12.603Z,1.70
2019-03-05T06:10:12.612Z,1.50
2019-03-05T06:11:12.567Z,1.20
2019-03-05T06:12:12.567Z,1.50
2019-03-05T06:13:12.550Z,1.20
2019-03-05T06:14:12.535Z,1.30
2019-03-05T06:15:12.544Z,1.30
2019-03-05T06:16:12.531Z,1.50
2019-03-05T06:17:12.512Z,1.60
2019-03-05T06:18:12.499Z,1.20
2019-03-05T06:19:12.489Z,1.50
2019-03-05T06:20:12.477Z,1.30
2019-03-05T06:21:12.517Z,1.60
2019-03-05T06:22:12.444Z,1.70
2019-03-05T06:23:12.442Z,1.20
2019-03-05T06:24:12.423Z,1.50
2019-03-05T06:25:12.417Z,1.40
2019-03-05T06:26:12.401Z,1.40
2019-03-05T06:27:12.430Z,1.60
2019-03-05T06:28:12.383Z,1.40
2019-03-05T06:29:12.378Z,1.50
2019-03-05T06:30:12.357Z,1.50
2019-03-05T06:31:12.344Z,1.40
2019-03-05T06:32:12.340Z,1.30
2019-03-05T06:33:12.357Z,1.30
2019-03-05T06:34:12.316Z,1.60
2019-03-05T06:35:12.304Z,1.40
2019-03-05T06:36:12.288Z,1.40
2019-03-05T06:37:12.274Z,1.30
2019-03-05T06:38:12.288Z,1.60
2019-03-05T06:39:12.275Z,1.40
2019-03-05T06:40:12.248Z,1.70
2019-03-05T06:41:12.237Z,1.70
2019-03-05T06:42:12.228Z,1.20
2019-03-05T06:43:12.206Z,1.50
2019-03-05T06:44:12.221Z,1.40
2019-03-05T06:45:12.214Z,1.40
2019-03-05T06:46:12.185Z,1.60
2019-03-05T06:47:12.169Z,1.70
2019-03-05T06:48:12.148Z,1.40
2019-03-05T06:49:12.141Z,1.60
2019-03-05T06:50:12.169Z,1.40
2019-03-05T06:51:12.121Z,1.70
2019-03-05T06:52:12.134Z,1.60
2019-03-05T06:53:12.094Z,1.50
2019-03-05T06:54:12.087Z,1.40
2019-03-05T06:55:12.077Z,2.00
2019-03-05T06:56:12.086Z,1.40
2019-03-05T06:57:12.058Z,1.50
2019-03-05T06:58:12.126Z,1.60
2019-03-05T06:59:12.021Z,1.50
2019-03-05T07:00:12.018Z,1.70
2019-03-05T07:01:12.032Z,1.80
2019-03-05T07:02:12.005Z,1.80
2019-03-05T07:03:11.985Z,2.40
2019-03-05T07:04:11.989Z,1.60
2019-03-05T07:05:11.963Z,1.90
2019-03-05T07:06:11.948Z,2.00
2019-03-05T07:07:11.969Z,2.20
2019-03-05T07:08:11.925Z,1.60
2019-03-05T07:09:11.917Z,4.40
2019-03-05T07:10:11.922Z,2.50
2019-03-05T07:11:11.892Z,1.90
2019-03-05T07:12:11.926Z,1.60
2019-03-05T07:13:11.876Z,1.80
2019-03-05T07:14:11.864Z,2.50
2019-03-05T07:15:11.845Z,2.00
2019-03-05T07:16:11.850Z,2.20
2019-03-05T07:17:11.831Z,1.80
2019-03-05T07:18:11.840Z,1.90
2019-03-05T07:19:11.808Z,2.20
2019-03-05T07:20:11.823Z,1.90
2019-03-05T07:21:11.780Z,3.20
2019-03-05T07:22:11.773Z,2.70
2019-03-05T07:23:11.963Z,1.40
2019-03-05T07:24:14.242Z,2.00
2019-03-05T07:25:34.957Z,3.50
2019-03-05T07:26:12.928Z,4.60
2019-03-05T07:27:15.821Z,2.40
2019-03-05T07:28:13.115Z,2.10
2019-03-05T07:29:12.304Z,1.70
2019-03-05T07:30:11.966Z,2.30
2019-03-05T07:31:12.008Z,1.90
2019-03-05T07:32:11.702Z,2.60
2019-03-05T07:33:11.645Z,2.30
2019-03-05T07:34:13.024Z,1.90
2019-03-05T07:35:11.873Z,2.20
2019-03-05T07:36:12.579Z,2.30
2019-03-05T07:37:11.798Z,2.30
2019-03-05T07:38:11.601Z,2.10
2019-03-05T07:39:11.574Z,1.60
2019-03-05T07:40:11.673Z,1.80
2019-03-05T07:41:11.553Z,1.60
2019-03-05T07:42:11.580Z,1.80
2019-03-05T07:43:13.195Z,1.90
2019-03-05T07:44:12.175Z,3.40
2019-03-05T07:45:11.517Z,1.90
2019-03-05T07:46:11.513Z,1.80
2019-03-05T07:47:11.502Z,1.40
2019-03-05T07:48:11.475Z,1.30
2019-03-05T07:49:11.483Z,1.70
2019-03-05T07:50:11.445Z,1.50
2019-03-05T07:51:11.457Z,1.60
2019-03-05T07:52:11.449Z,2.00
2019-03-05T07:53:11.422Z,2.40
2019-03-05T07:54:11.406Z,1.60
2019-03-05T07:55:13.920Z,1.50
2019-03-05T07:56:11.385Z,1.40
2019-03-05T07:57:11.414Z,1.30
2019-03-05T07:58:11.356Z,1.90
2019-03-05T07:59:11.353Z,1.60
2019-03-05T08:00:11.336Z,1.70
2019-03-05T08:01:21.867Z,1.70
2019-03-05T08:02:12.336Z,2.10
2019-03-05T08:03:11.320Z,1.70
2019-03-05T08:04:11.293Z,1.90
2019-03-05T08:05:11.276Z,1.50
2019-03-05T08:06:11.270Z,1.90
2019-03-05T08:07:11.255Z,2.00
2019-03-05T08:08:11.273Z,2.00
2019-03-05T08:09:11.253Z,1.90
2019-03-05T08:10:11.225Z,2.00
2019-03-05T08:11:11.213Z,2.20
2019-03-05T08:12:11.200Z,2.10
2019-03-05T08:13:11.197Z,2.50
2019-03-05T08:14:11.173Z,2.40
2019-03-05T08:15:11.189Z,2.40
2019-03-05T08:16:11.155Z,2.10
2019-03-05T08:17:11.142Z,2.30
2019-03-05T08:18:11.147Z,2.90
2019-03-05T08:19:11.117Z,2.60
2019-03-05T08:20:11.111Z,2.60
2019-03-05T08:21:11.174Z,1.80
2019-03-05T08:22:11.086Z,2.00
2019-03-05T08:23:11.131Z,1.90
2019-03-05T08:24:11.059Z,1.90
2019-03-05T08:25:11.052Z,1.90
2019-03-05T08:26:11.045Z,1.90
2019-03-05T08:27:11.097Z,2.00
2019-03-05T08:28:11.018Z,2.60
2019-03-05T08:29:11.028Z,2.10
2019-03-05T08:30:14.499Z,1.70
2019-03-05T08:31:10.991Z,4.80
2019-03-05T08:32:10.973Z,3.30
2019-03-05T08:33:10.988Z,3.30
2019-03-05T08:34:10.953Z,2.20
2019-03-05T08:35:10.976Z,4.60
2019-03-05T08:36:10.934Z,3.80
2019-03-05T08:37:13.355Z,2.90
2019-03-05T08:38:10.906Z,3.70
2019-03-05T08:39:10.937Z,4.60
2019-03-05T08:40:10.934Z,4.10
2019-03-05T08:41:10.889Z,2.50
2019-03-05T08:42:10.863Z,3.00
2019-03-05T08:43:10.854Z,3.60
2019-03-05T08:44:10.845Z,3.30
2019-03-05T08:45:10.852Z,3.20
2019-03-05T08:46:11.016Z,3.20
2019-03-05T08:47:10.817Z,2.50
2019-03-05T08:48:10.800Z,1.90
2019-03-05T08:49:10.792Z,2.10
2019-03-05T08:50:10.781Z,1.80
2019-03-05T08:51:10.791Z,1.60
2019-03-05T08:52:10.784Z,1.70
2019-03-05T08:53:10.742Z,2.10
2019-03-05T08:54:10.739Z,1.60
2019-03-05T08:55:10.726Z,1.80
2019-03-05T08:56:10.711Z,1.60
2019-03-05T08:57:10.761Z,1.90
2019-03-05T08:58:10.690Z,1.80
2019-03-05T08:59:10.680Z,1.90
2019-03-05T09:00:10.665Z,2.00
2019-03-05T09:01:10.652Z,2.30
2019-03-05T09:02:10.658Z,1.50
2019-03-05T09:03:10.676Z,1.90
2019-03-05T09:04:11.580Z,2.10
2019-03-05T09:05:10.617Z,2.10
2019-03-05T09:06:10.600Z,2.20
2019-03-05T09:07:10.582Z,2.20
2019-03-05T09:08:10.625Z,1.60
2019-03-05T09:09:10.621Z,1.60
2019-03-05T09:10:10.553Z,1.60
2019-03-05T09:11:10.544Z,1.40
2019-03-05T09:12:10.549Z,1.50
2019-03-05T09:13:10.523Z,1.50
2019-03-05T09:14:10.531Z,1.40
2019-03-05T09:15:10.521Z,1.60
2019-03-05T09:16:10.492Z,1.60
2019-03-05T09:17:10.479Z,1.30
2019-03-05T09:18:10.467Z,1.50
2019-03-05T09:19:10.482Z,1.60
2019-03-05T09:20:10.465Z,1.70
2019-03-05T09:21:10.436Z,1.60
2019-03-05T09:22:10.429Z,1.30
2019-03-05T09:23:10.406Z,1.40
2019-03-05T09:24:10.398Z,1.70
2019-03-05T09:25:10.415Z,1.30
2019-03-05T09:26:10.398Z,1.40
2019-03-05T09:27:10.364Z,2.60
2019-03-05T09:28:10.362Z,2.70
2019-03-05T09:29:10.348Z,1.60
2019-03-05T09:30:10.333Z,1.20
2019-03-05T09:31:10.333Z,1.20
2019-03-05T09:32:10.336Z,1.10
2019-03-05T09:33:10.296Z,1.10
2019-03-05T09:34:10.287Z,0.90
2019-03-05T09:35:10.282Z,0.90
2019-03-05T09:36:10.307Z,1.20
2019-03-05T09:37:10.265Z,1.20
2019-03-05T09:38:10.246Z,1.30
2019-03-05T09:39:10.250Z,1.30
2019-03-05T09:40:10.216Z,1.70
2019-03-05T09:41:11.075Z,1.50
2019-03-05T09:42:10.238Z,1.10
2019-03-05T09:43:10.184Z,2.10
2019-03-05T09:44:10.581Z,1.40
2019-03-05T09:45:10.159Z,1.20
2019-03-05T09:46:10.192Z,1.50
2019-03-05T09:47:10.145Z,1.10
2019-03-05T09:48:10.148Z,1.00
2019-03-05T09:49:10.124Z,1.20
2019-03-05T09:50:10.134Z,1.20
2019-03-05T09:51:10.107Z,1.10
2019-03-05T09:52:10.092Z,1.40
2019-03-05T09:53:10.093Z,1.10
2019-03-05T09:54:10.055Z,1.30
2019-03-05T09:55:10.052Z,1.10
2019-03-05T09:56:10.057Z,0.90
2019-03-05T09:57:10.033Z,1.00
2019-03-05T09:58:10.046Z,1.00
2019-03-05T09:59:10.015Z,1.00
2019-03-05T10:00:10.002Z,1.10
2019-03-05T10:01:09.985Z,1.20
2019-03-05T10:02:10.069Z,1.20
2019-03-05T10:03:09.984Z,1.00
2019-03-05T10:04:09.946Z,1.30
2019-03-05T10:05:09.942Z,1.50
2019-03-05T10:06:09.930Z,1.10
2019-03-05T10:07:18.546Z,1.10
2019-03-05T10:08:10.956Z,1.40
2019-03-05T10:09:09.896Z,1.20
2019-03-05T10:10:09.885Z,1.20
2019-03-05T10:11:09.874Z,1.30
2019-03-05T10:12:09.862Z,1.40
2019-03-05T10:13:09.848Z,2.00
2019-03-05T10:14:09.882Z,1.20
2019-03-05T10:15:09.826Z,1.10
2019-03-05T10:16:09.821Z,1.40
2019-03-05T10:17:09.808Z,1.10
2019-03-05T10:18:12.934Z,1.00
2019-03-05T10:19:09.783Z,1.20
2019-03-05T10:20:09.918Z,1.20
2019-03-05T10:21:11.829Z,1.20
2019-03-05T10:22:09.752Z,1.00
2019-03-05T10:23:09.745Z,1.00
2019-03-05T10:24:10.948Z,1.50
2019-03-05T10:25:09.719Z,1.60
2019-03-05T10:26:10.633Z,1.50
2019-03-05T10:27:09.699Z,1.60
2019-03-05T10:28:09.686Z,1.30
2019-03-05T10:29:09.672Z,1.60
2019-03-05T10:30:09.666Z,2.40
2019-03-05T10:31:09.665Z,1.30
2019-03-05T10:32:09.666Z,1.50
2019-03-05T10:33:09.624Z,2.50
2019-03-05T10:34:09.617Z,1.40
2019-03-05T10:35:09.603Z,1.80
2019-03-05T10:36:09.613Z,1.60
2019-03-05T10:37:14.637Z,1.90
2019-03-05T10:38:10.697Z,1.30
2019-03-05T10:39:09.564Z,1.30
2019-03-05T10:40:09.558Z,1.80
2019-03-05T10:41:09.542Z,2.00
2019-03-05T10:42:09.571Z,1.90
2019-03-05T10:43:09.549Z,2.00
2019-03-05T10:44:09.503Z,2.20
2019-03-05T10:45:09.491Z,1.50
2019-03-05T10:46:09.486Z,1.20
2019-03-05T10:47:09.475Z,1.50
2019-03-05T10:48:09.485Z,1.80
2019-03-05T10:49:09.476Z,1.90
2019-03-05T10:50:15.197Z,1.20
2019-03-05T10:51:09.428Z,2.00
2019-03-05T10:52:09.413Z,1.60
2019-03-05T10:53:09.403Z,1.60
2019-03-05T10:54:09.409Z,1.80
2019-03-05T10:55:09.467Z,1.40
2019-03-05T10:56:09.371Z,1.50
2019-03-05T10:57:09.364Z,1.90
2019-03-05T10:58:09.345Z,2.30
2019-03-05T10:59:09.376Z,1.90
2019-03-05T11:00:09.328Z,2.20
2019-03-05T11:01:09.335Z,1.50
2019-03-05T11:02:09.316Z,1.30
2019-03-05T11:03:09.288Z,1.30
2019-03-05T11:04:09.276Z,1.80
2019-03-05T11:05:09.279Z,1.40
2019-03-05T11:06:09.272Z,1.60
2019-03-05T11:07:09.266Z,1.30
2019-03-05T11:08:09.231Z,1.20
2019-03-05T11:09:09.222Z,1.30
2019-03-05T11:10:09.237Z,1.20
2019-03-05T11:11:13.442Z,1.10
2019-03-05T11:12:09.192Z,1.00
2019-03-05T11:13:09.215Z,1.10
2019-03-05T11:14:09.165Z,0.90
2019-03-05T11:15:09.157Z,1.10
2019-03-05T11:16:09.342Z,0.90
2019-03-05T11:17:09.136Z,1.00
2019-03-05T11:18:09.121Z,1.10
2019-03-05T11:19:09.132Z,1.10
2019-03-05T11:20:09.104Z,1.80
2019-03-05T11:21:09.111Z,2.40
2019-03-05T11:22:09.086Z,1.70
2019-03-05T11:23:11.550Z,1.20
2019-03-05T11:24:09.052Z,1.40
2019-03-05T11:25:09.062Z,1.20
2019-03-05T11:26:09.032Z,1.20
2019-03-05T11:27:09.044Z,1.20
2019-03-05T11:28:09.013Z,1.40
2019-03-05T11:29:09.004Z,1.40
2019-03-05T11:30:08.980Z,1.20
2019-03-05T11:31:09.009Z,1.20
2019-03-05T11:32:08.966Z,1.30
2019-03-05T11:33:08.979Z,1.40
2019-03-05T11:34:08.949Z,1.30
2019-03-05T11:35:08.936Z,0.90
2019-03-05T11:36:08.917Z,1.10
2019-03-05T11:37:08.934Z,1.10
2019-03-05T11:38:08.905Z,1.40
2019-03-05T11:39:08.897Z,1.40
2019-03-05T11:40:09.247Z,2.00
2019-03-05T11:41:08.871Z,1.20
2019-03-05T11:42:08.865Z,1.60
2019-03-05T11:43:08.846Z,1.40
2019-03-05T11:44:08.873Z,1.40
2019-03-05T11:45:11.620Z,1.80
2019-03-05T11:46:08.809Z,1.40
2019-03-05T11:47:08.798Z,1.30
2019-03-05T11:48:08.788Z,1.60
2019-03-05T11:49:08.817Z,1.70
2019-03-05T11:50:08.798Z,1.60
2019-03-05T11:51:08.755Z,1.70
2019-03-05T11:52:08.745Z,2.40
2019-03-05T11:53:08.795Z,1.50
2019-03-05T11:54:08.727Z,1.60
2019-03-05T11:55:08.740Z,1.50
2019-03-05T11:56:08.726Z,1.40
2019-03-05T11:57:08.688Z,1.40
2019-03-05T11:58:08.687Z,1.70
2019-03-05T11:59:08.667Z,1.30
2019-03-05T12:00:08.656Z,1.30
2019-03-05T12:01:08.656Z,1.70
2019-03-05T12:02:09.849Z,1.70
2019-03-05T12:03:08.622Z,1.50
2019-03-05T12:04:08.615Z,1.30
2019-03-05T12:05:08.596Z,1.70
2019-03-05T12:06:08.598Z,1.90
2019-03-05T12:07:08.577Z,2.00
2019-03-05T12:08:08.590Z,2.90
2019-03-05T12:09:08.557Z,2.00
2019-03-05T12:10:08.547Z,1.90
2019-03-05T12:11:08.555Z,1.60
2019-03-05T12:12:08.519Z,1.90
2019-03-05T12:13:08.510Z,1.40
2019-03-05T12:14:08.518Z,1.70
2019-03-05T12:15:08.496Z,1.70
2019-03-05T12:16:08.475Z,2.00
2019-03-05T12:17:08.519Z,1.50
2019-03-05T12:18:08.460Z,2.10
2019-03-05T12:19:08.450Z,2.50
2019-03-05T12:20:08.483Z,1.70
2019-03-05T12:21:08.429Z,4.80
2019-03-05T12:22:08.419Z,2.50
2019-03-05T12:23:10.368Z,2.10
2019-03-05T12:24:08.391Z,2.30
2019-03-05T12:25:08.376Z,1.70
2019-03-05T12:26:08.384Z,1.40
2019-03-05T12:27:08.352Z,1.30
2019-03-05T12:28:10.558Z,1.50
2019-03-05T12:29:08.367Z,1.70
2019-03-05T12:30:08.373Z,2.60
2019-03-05T12:31:08.317Z,2.10
2019-03-05T12:32:08.305Z,1.70
2019-03-05T12:33:08.288Z,2.80
2019-03-05T12:34:08.300Z,1.40
2019-03-05T12:35:08.288Z,2.40
2019-03-05T12:36:08.248Z,1.30
2019-03-05T12:37:08.239Z,1.30
2019-03-05T12:38:08.247Z,1.50
2019-03-05T12:39:08.223Z,1.60
2019-03-05T12:40:08.207Z,1.40
2019-03-05T12:41:08.208Z,1.00
2019-03-05T12:42:08.189Z,1.30
2019-03-05T12:43:08.165Z,1.00
2019-03-05T12:44:08.185Z,1.00
2019-03-05T12:45:08.155Z,1.40
2019-03-05T12:46:08.162Z,1.10
2019-03-05T12:47:08.128Z,1.20
2019-03-05T12:48:08.124Z,1.20
2019-03-05T12:49:08.108Z,1.10
2019-03-05T12:50:08.104Z,1.00
2019-03-05T12:51:08.087Z,1.30
2019-03-05T12:52:08.095Z,1.20
2019-03-05T12:53:08.059Z,1.30
2019-03-05T12:54:08.046Z,1.30
2019-03-05T12:55:08.038Z,1.30
2019-03-05T12:56:08.045Z,1.70
2019-03-05T12:57:08.012Z,1.20
2019-03-05T12:58:08.018Z,1.20
2019-03-05T12:59:07.998Z,1.30
2019-03-05T13:00:07.985Z,1.70
2019-03-05T13:01:08.063Z,1.10
2019-03-05T13:02:07.975Z,1.20
2019-03-05T13:03:07.969Z,1.30
2019-03-05T13:04:07.932Z,1.30
2019-03-05T13:05:07.932Z,1.10
2019-03-05T13:06:07.919Z,1.40
2019-03-05T13:07:07.902Z,1.10
2019-03-05T13:08:07.915Z,1.30
2019-03-05T13:09:07.900Z,1.40
2019-03-05T13:10:07.873Z,1.10
2019-03-05T13:11:09.383Z,1.30
2019-03-05T13:12:07.846Z,1.40
2019-03-05T13:13:10.423Z,1.50
2019-03-05T13:14:12.190Z,1.30
2019-03-05T13:15:07.824Z,1.20
2019-03-05T13:16:07.818Z,2.00
2019-03-05T13:17:08.610Z,1.60
2019-03-05T13:18:07.779Z,1.20
2019-03-05T13:19:09.569Z,1.40